sensor_id;sensor_type;location;lat;lon;timestamp;temperature;humidity
1049;DHT22;513;51.444;7.196;2022-10-16T00:00:45;13.00;99.90
1049;DHT22;513;51.444;7.196;2022-10-16T00:03:11;13.00;99.90
1049;DHT22;513;51.444;7.196;2022-10-16T00:05:39;13.00;99.90
1049;DHT22;513;51.444;7.196;2022-10-16T00:08:07;12.90;99.90
1049;DHT22;513;51.444;7.196;2022-10-16T00:10:34;12.90;99.90
1049;DHT22;513;51.444;7.196;2022-10-16T00:13:03;12.90;99.90
1049;DHT22;513;51.444;7.196;2022-10-16T00:15:30;12.90;99.90
1049;DHT22;513;51.444;7.196;2022-10-16T00:17:56;12.90;99.90
1049;DHT22;513;51.444;7.196;2022-10-16T00:20:23;12.90;99.90
1049;DHT22;513;51.444;7.196;2022-10-16T00:22:50;12.90;99.90
1049;DHT22;513;51.444;7.196;2022-10-16T00:25:16;12.90;99.90
1049;DHT22;513;51.444;7.196;2022-10-16T00:27:43;12.90;99.90
1049;DHT22;513;51.444;7.196;2022-10-16T00:30:11;12.90;99.90
1049;DHT22;513;51.444;7.196;2022-10-16T00:32:38;13.00;99.90
1049;DHT22;513;51.444;7.196;2022-10-16T00:35:05;13.00;99.90
1049;DHT22;513;51.444;7.196;2022-10-16T00:37:32;13.00;99.90
1049;DHT22;513;51.444;7.196;2022-10-16T00:39:58;13.00;99.90
1049;DHT22;513;51.444;7.196;2022-10-16T00:42:25;13.00;99.90
1049;DHT22;513;51.444;7.196;2022-10-16T00:44:53;13.00;99.90
1049;DHT22;513;51.444;7.196;2022-10-16T00:47:27;13.00;99.90
1049;DHT22;513;51.444;7.196;2022-10-16T00:49:58;13.10;99.90
1049;DHT22;513;51.444;7.196;2022-10-16T00:52:25;13.00;99.90
1049;DHT22;513;51.444;7.196;2022-10-16T00:54:52;13.10;99.90
1049;DHT22;513;51.444;7.196;2022-10-16T00:57:20;13.00;99.90
1049;DHT22;513;51.444;7.196;2022-10-16T00:59:47;13.00;99.90
1049;DHT22;513;51.444;7.196;2022-10-16T01:02:15;13.00;99.90
1049;DHT22;513;51.444;7.196;2022-10-16T01:04:46;13.00;99.90
1049;DHT22;513;51.444;7.196;2022-10-16T01:07:18;13.00;99.90
1049;DHT22;513;51.444;7.196;2022-10-16T01:09:58;13.00;99.90
1049;DHT22;513;51.444;7.196;2022-10-16T01:12:36;13.00;99.90
1049;DHT22;513;51.444;7.196;2022-10-16T01:15:10;13.00;99.90
1049;DHT22;513;51.444;7.196;2022-10-16T01:17:41;13.00;99.90
1049;DHT22;513;51.444;7.196;2022-10-16T01:20:14;13.00;99.90
1049;DHT22;513;51.444;7.196;2022-10-16T01:26:13;12.90;99.90
1049;DHT22;513;51.444;7.196;2022-10-16T01:28:49;12.90;99.90
1049;DHT22;513;51.444;7.196;2022-10-16T01:31:19;12.90;99.90
1049;DHT22;513;51.444;7.196;2022-10-16T01:33:53;12.90;99.90
1049;DHT22;513;51.444;7.196;2022-10-16T01:36:25;12.90;99.90
1049;DHT22;513;51.444;7.196;2022-10-16T01:38:57;12.90;99.90
1049;DHT22;513;51.444;7.196;2022-10-16T01:41:30;12.80;99.90
1049;DHT22;513;51.444;7.196;2022-10-16T01:44:02;12.80;99.90
1049;DHT22;513;51.444;7.196;2022-10-16T01:46:31;12.80;99.90
1049;DHT22;513;51.444;7.196;2022-10-16T01:49:00;12.80;99.90
1049;DHT22;513;51.444;7.196;2022-10-16T01:51:28;12.80;99.90
1049;DHT22;513;51.444;7.196;2022-10-16T01:53:58;12.80;99.90
1049;DHT22;513;51.444;7.196;2022-10-16T01:56:25;12.80;99.90
1049;DHT22;513;51.444;7.196;2022-10-16T01:58:55;12.80;99.90
1049;DHT22;513;51.444;7.196;2022-10-16T02:01:26;12.80;99.90
1049;DHT22;513;51.444;7.196;2022-10-16T02:03:58;12.80;99.90
1049;DHT22;513;51.444;7.196;2022-10-16T02:06:25;12.80;99.90
1049;DHT22;513;51.444;7.196;2022-10-16T02:08:53;12.80;99.90
1049;DHT22;513;51.444;7.196;2022-10-16T02:11:20;12.80;99.90
1049;DHT22;513;51.444;7.196;2022-10-16T02:13:49;12.80;99.90
1049;DHT22;513;51.444;7.196;2022-10-16T02:16:16;12.90;99.90
1049;DHT22;513;51.444;7.196;2022-10-16T02:18:44;12.90;99.90
1049;DHT22;513;51.444;7.196;2022-10-16T02:21:16;12.90;99.90
1049;DHT22;513;51.444;7.196;2022-10-16T02:23:50;12.90;99.90
1049;DHT22;513;51.444;7.196;2022-10-16T02:26:23;12.90;99.90
1049;DHT22;513;51.444;7.196;2022-10-16T02:28:57;12.90;99.90
1049;DHT22;513;51.444;7.196;2022-10-16T02:31:28;12.90;99.90
1049;DHT22;513;51.444;7.196;2022-10-16T02:33:59;12.90;99.90
1049;DHT22;513;51.444;7.196;2022-10-16T02:36:27;12.90;99.90
1049;DHT22;513;51.444;7.196;2022-10-16T02:38:54;12.90;99.90
1049;DHT22;513;51.444;7.196;2022-10-16T02:41:21;12.80;99.90
1049;DHT22;513;51.444;7.196;2022-10-16T02:43:48;12.80;99.90
1049;DHT22;513;51.444;7.196;2022-10-16T02:46:15;12.90;99.90
1049;DHT22;513;51.444;7.196;2022-10-16T02:48:43;12.90;99.90
1049;DHT22;513;51.444;7.196;2022-10-16T02:51:11;12.90;99.90
1049;DHT22;513;51.444;7.196;2022-10-16T02:53:38;12.90;99.90
1049;DHT22;513;51.444;7.196;2022-10-16T02:56:04;12.90;99.90
1049;DHT22;513;51.444;7.196;2022-10-16T02:58:31;12.90;99.90
1049;DHT22;513;51.444;7.196;2022-10-16T03:00:58;12.90;99.90
1049;DHT22;513;51.444;7.196;2022-10-16T03:03:24;13.00;99.90
1049;DHT22;513;51.444;7.196;2022-10-16T03:05:51;13.00;99.90
1049;DHT22;513;51.444;7.196;2022-10-16T03:08:19;13.00;99.90
1049;DHT22;513;51.444;7.196;2022-10-16T03:10:49;13.10;99.90
1049;DHT22;513;51.444;7.196;2022-10-16T03:13:15;13.10;99.90
1049;DHT22;513;51.444;7.196;2022-10-16T03:15:43;13.20;99.90
1049;DHT22;513;51.444;7.196;2022-10-16T03:18:09;13.20;99.90
1049;DHT22;513;51.444;7.196;2022-10-16T03:20:36;13.20;99.90
1049;DHT22;513;51.444;7.196;2022-10-16T03:23:03;13.20;99.90
1049;DHT22;513;51.444;7.196;2022-10-16T03:25:31;13.20;99.90
1049;DHT22;513;51.444;7.196;2022-10-16T03:27:57;13.20;99.90
1049;DHT22;513;51.444;7.196;2022-10-16T03:30:24;13.20;99.90
1049;DHT22;513;51.444;7.196;2022-10-16T03:32:50;13.20;99.90
1049;DHT22;513;51.444;7.196;2022-10-16T03:35:19;13.20;99.90
1049;DHT22;513;51.444;7.196;2022-10-16T03:37:45;13.20;99.90
1049;DHT22;513;51.444;7.196;2022-10-16T03:40:12;13.10;99.90
1049;DHT22;513;51.444;7.196;2022-10-16T03:42:42;13.10;99.90
1049;DHT22;513;51.444;7.196;2022-10-16T03:45:10;13.20;99.90
1049;DHT22;513;51.444;7.196;2022-10-16T03:47:36;13.10;99.90
1049;DHT22;513;51.444;7.196;2022-10-16T03:50:04;13.10;99.90
1049;DHT22;513;51.444;7.196;2022-10-16T03:52:31;13.10;99.90
1049;DHT22;513;51.444;7.196;2022-10-16T03:54:58;13.10;99.90
1049;DHT22;513;51.444;7.196;2022-10-16T03:57:25;13.10;99.90
1049;DHT22;513;51.444;7.196;2022-10-16T03:59:53;13.10;99.90
1049;DHT22;513;51.444;7.196;2022-10-16T04:02:19;13.00;99.90
1049;DHT22;513;51.444;7.196;2022-10-16T04:04:46;13.00;99.90
1049;DHT22;513;51.444;7.196;2022-10-16T04:07:13;12.90;99.90
1049;DHT22;513;51.444;7.196;2022-10-16T04:09:39;12.90;99.90
1049;DHT22;513;51.444;7.196;2022-10-16T04:12:07;12.80;99.90
1049;DHT22;513;51.444;7.196;2022-10-16T04:14:33;12.80;99.90
1049;DHT22;513;51.444;7.196;2022-10-16T04:17:01;12.80;99.90
1049;DHT22;513;51.444;7.196;2022-10-16T04:19:28;12.80;99.90
1049;DHT22;513;51.444;7.196;2022-10-16T04:21:55;12.80;99.90
1049;DHT22;513;51.444;7.196;2022-10-16T04:24:21;12.80;99.90
1049;DHT22;513;51.444;7.196;2022-10-16T04:26:48;12.80;99.90
1049;DHT22;513;51.444;7.196;2022-10-16T04:29:14;12.70;99.90
1049;DHT22;513;51.444;7.196;2022-10-16T04:31:41;12.70;99.90
1049;DHT22;513;51.444;7.196;2022-10-16T04:34:09;12.60;99.90
1049;DHT22;513;51.444;7.196;2022-10-16T04:36:36;12.60;99.90
1049;DHT22;513;51.444;7.196;2022-10-16T04:39:03;12.60;99.90
1049;DHT22;513;51.444;7.196;2022-10-16T04:41:29;12.60;99.90
1049;DHT22;513;51.444;7.196;2022-10-16T04:43:56;12.60;99.90
1049;DHT22;513;51.444;7.196;2022-10-16T04:46:22;12.60;99.90
1049;DHT22;513;51.444;7.196;2022-10-16T04:48:49;12.60;99.90
1049;DHT22;513;51.444;7.196;2022-10-16T04:51:17;12.60;99.90
1049;DHT22;513;51.444;7.196;2022-10-16T04:53:44;12.60;99.90
1049;DHT22;513;51.444;7.196;2022-10-16T04:56:11;12.60;99.90
1049;DHT22;513;51.444;7.196;2022-10-16T04:58:37;12.60;99.90
1049;DHT22;513;51.444;7.196;2022-10-16T05:01:04;12.60;99.90
1049;DHT22;513;51.444;7.196;2022-10-16T05:03:31;12.60;99.90
1049;DHT22;513;51.444;7.196;2022-10-16T05:05:57;12.60;99.90
1049;DHT22;513;51.444;7.196;2022-10-16T05:08:25;12.60;99.90
1049;DHT22;513;51.444;7.196;2022-10-16T05:10:52;12.60;99.90
1049;DHT22;513;51.444;7.196;2022-10-16T05:13:19;12.70;99.90
1049;DHT22;513;51.444;7.196;2022-10-16T05:15:46;12.80;99.90
1049;DHT22;513;51.444;7.196;2022-10-16T05:18:13;12.80;99.90
1049;DHT22;513;51.444;7.196;2022-10-16T05:20:40;12.80;99.90
1049;DHT22;513;51.444;7.196;2022-10-16T05:23:07;12.80;99.90
1049;DHT22;513;51.444;7.196;2022-10-16T05:25:36;12.80;99.90
1049;DHT22;513;51.444;7.196;2022-10-16T05:28:03;12.80;99.90
1049;DHT22;513;51.444;7.196;2022-10-16T05:30:30;12.80;99.90
1049;DHT22;513;51.444;7.196;2022-10-16T05:32:57;12.80;99.90
1049;DHT22;513;51.444;7.196;2022-10-16T05:35:23;12.80;99.90
1049;DHT22;513;51.444;7.196;2022-10-16T05:37:50;12.70;99.90
1049;DHT22;513;51.444;7.196;2022-10-16T05:40:17;12.70;99.90
1049;DHT22;513;51.444;7.196;2022-10-16T05:42:45;12.70;99.90
1049;DHT22;513;51.444;7.196;2022-10-16T05:45:11;12.70;99.90
1049;DHT22;513;51.444;7.196;2022-10-16T05:47:38;12.70;99.90
1049;DHT22;513;51.444;7.196;2022-10-16T05:50:06;12.70;99.90
1049;DHT22;513;51.444;7.196;2022-10-16T05:52:32;12.70;99.90
1049;DHT22;513;51.444;7.196;2022-10-16T05:54:59;12.70;99.90
1049;DHT22;513;51.444;7.196;2022-10-16T05:57:26;12.70;99.90
1049;DHT22;513;51.444;7.196;2022-10-16T05:59:53;12.70;99.90
1049;DHT22;513;51.444;7.196;2022-10-16T06:02:21;12.70;99.90
1049;DHT22;513;51.444;7.196;2022-10-16T06:04:47;12.70;99.90
1049;DHT22;513;51.444;7.196;2022-10-16T06:07:14;12.70;99.90
1049;DHT22;513;51.444;7.196;2022-10-16T06:09:41;12.70;99.90
1049;DHT22;513;51.444;7.196;2022-10-16T06:12:08;12.70;99.90
1049;DHT22;513;51.444;7.196;2022-10-16T06:14:34;12.70;99.90
1049;DHT22;513;51.444;7.196;2022-10-16T06:17:02;12.70;99.90
1049;DHT22;513;51.444;7.196;2022-10-16T06:19:29;12.70;99.90
1049;DHT22;513;51.444;7.196;2022-10-16T06:21:56;12.70;99.90
1049;DHT22;513;51.444;7.196;2022-10-16T06:24:24;12.70;99.90
1049;DHT22;513;51.444;7.196;2022-10-16T06:26:50;12.70;99.90
1049;DHT22;513;51.444;7.196;2022-10-16T06:29:17;12.70;99.90
1049;DHT22;513;51.444;7.196;2022-10-16T06:31:44;12.70;99.90
1049;DHT22;513;51.444;7.196;2022-10-16T06:34:12;12.60;99.90
1049;DHT22;513;51.444;7.196;2022-10-16T06:36:38;12.60;99.90
1049;DHT22;513;51.444;7.196;2022-10-16T06:39:06;12.60;99.90
1049;DHT22;513;51.444;7.196;2022-10-16T06:41:33;12.70;99.90
1049;DHT22;513;51.444;7.196;2022-10-16T06:44:00;12.70;99.90
1049;DHT22;513;51.444;7.196;2022-10-16T06:46:27;12.80;99.90
1049;DHT22;513;51.444;7.196;2022-10-16T06:48:53;12.90;99.90
1049;DHT22;513;51.444;7.196;2022-10-16T06:51:23;12.90;99.90
1049;DHT22;513;51.444;7.196;2022-10-16T06:53:52;12.90;99.90
1049;DHT22;513;51.444;7.196;2022-10-16T06:56:20;13.00;99.90
1049;DHT22;513;51.444;7.196;2022-10-16T06:58:47;13.00;99.90
1049;DHT22;513;51.444;7.196;2022-10-16T07:01:15;13.10;99.90
1049;DHT22;513;51.444;7.196;2022-10-16T07:03:44;13.10;99.90
1049;DHT22;513;51.444;7.196;2022-10-16T07:06:12;13.10;99.90
1049;DHT22;513;51.444;7.196;2022-10-16T07:08:43;13.20;99.90
1049;DHT22;513;51.444;7.196;2022-10-16T07:11:11;13.20;99.90
1049;DHT22;513;51.444;7.196;2022-10-16T07:13:40;13.30;99.90
1049;DHT22;513;51.444;7.196;2022-10-16T07:16:10;13.30;99.90
1049;DHT22;513;51.444;7.196;2022-10-16T07:18:37;13.30;99.90
1049;DHT22;513;51.444;7.196;2022-10-16T07:21:06;13.40;99.90
1049;DHT22;513;51.444;7.196;2022-10-16T07:23:33;13.40;99.90
1049;DHT22;513;51.444;7.196;2022-10-16T07:26:02;13.40;99.90
1049;DHT22;513;51.444;7.196;2022-10-16T07:28:29;13.40;99.90
1049;DHT22;513;51.444;7.196;2022-10-16T07:31:00;13.40;99.90
1049;DHT22;513;51.444;7.196;2022-10-16T07:33:28;13.40;99.90
1049;DHT22;513;51.444;7.196;2022-10-16T07:35:55;13.30;99.90
1049;DHT22;513;51.444;7.196;2022-10-16T07:38:22;13.30;99.90
1049;DHT22;513;51.444;7.196;2022-10-16T07:40:56;13.30;99.90
1049;DHT22;513;51.444;7.196;2022-10-16T07:43:25;13.30;99.90
1049;DHT22;513;51.444;7.196;2022-10-16T07:45:52;13.30;99.90
1049;DHT22;513;51.444;7.196;2022-10-16T07:48:19;13.30;99.90
1049;DHT22;513;51.444;7.196;2022-10-16T07:50:46;13.50;99.90
1049;DHT22;513;51.444;7.196;2022-10-16T07:53:13;13.60;99.90
1049;DHT22;513;51.444;7.196;2022-10-16T07:55:40;13.70;99.90
1049;DHT22;513;51.444;7.196;2022-10-16T07:58:07;13.80;99.90
1049;DHT22;513;51.444;7.196;2022-10-16T08:00:35;13.90;99.90
1049;DHT22;513;51.444;7.196;2022-10-16T08:03:02;14.10;99.90
1049;DHT22;513;51.444;7.196;2022-10-16T08:05:32;14.20;99.90
1049;DHT22;513;51.444;7.196;2022-10-16T08:08:00;14.30;99.90
1049;DHT22;513;51.444;7.196;2022-10-16T08:10:28;14.50;99.90
1049;DHT22;513;51.444;7.196;2022-10-16T08:12:55;14.50;99.90
1049;DHT22;513;51.444;7.196;2022-10-16T08:15:21;14.60;99.90
1049;DHT22;513;51.444;7.196;2022-10-16T08:17:56;14.70;99.90
1049;DHT22;513;51.444;7.196;2022-10-16T08:20:23;14.80;99.90
1049;DHT22;513;51.444;7.196;2022-10-16T08:22:50;14.90;99.90
1049;DHT22;513;51.444;7.196;2022-10-16T08:25:16;14.90;99.90
1049;DHT22;513;51.444;7.196;2022-10-16T08:27:43;15.00;99.90
1049;DHT22;513;51.444;7.196;2022-10-16T08:30:10;15.10;99.90
1049;DHT22;513;51.444;7.196;2022-10-16T08:32:37;15.10;99.90
1049;DHT22;513;51.444;7.196;2022-10-16T08:35:06;15.10;99.90
1049;DHT22;513;51.444;7.196;2022-10-16T08:37:32;15.20;99.90
1049;DHT22;513;51.444;7.196;2022-10-16T08:39:59;15.20;99.90
1049;DHT22;513;51.444;7.196;2022-10-16T08:42:35;15.30;99.90
1049;DHT22;513;51.444;7.196;2022-10-16T08:45:15;15.40;99.90
1049;DHT22;513;51.444;7.196;2022-10-16T08:47:49;15.40;99.90
1049;DHT22;513;51.444;7.196;2022-10-16T08:50:22;15.40;99.90
1049;DHT22;513;51.444;7.196;2022-10-16T08:52:50;15.50;99.90
1049;DHT22;513;51.444;7.196;2022-10-16T08:55:33;15.50;99.90
1049;DHT22;513;51.444;7.196;2022-10-16T08:58:12;15.60;99.90
1049;DHT22;513;51.444;7.196;2022-10-16T09:00:39;15.70;99.90
1049;DHT22;513;51.444;7.196;2022-10-16T09:03:13;15.70;99.90
1049;DHT22;513;51.444;7.196;2022-10-16T09:06:07;15.80;99.90
1049;DHT22;513;51.444;7.196;2022-10-16T09:08:44;15.90;99.90
1049;DHT22;513;51.444;7.196;2022-10-16T09:11:19;15.90;99.90
1049;DHT22;513;51.444;7.196;2022-10-16T09:13:55;15.90;99.90
1049;DHT22;513;51.444;7.196;2022-10-16T09:16:26;16.00;99.90
1049;DHT22;513;51.444;7.196;2022-10-16T09:18:58;16.00;99.90
1049;DHT22;513;51.444;7.196;2022-10-16T09:21:30;16.00;99.90
1049;DHT22;513;51.444;7.196;2022-10-16T09:23:59;16.00;99.90
1049;DHT22;513;51.444;7.196;2022-10-16T09:26:31;16.10;99.90
1049;DHT22;513;51.444;7.196;2022-10-16T09:28:57;16.10;99.90
1049;DHT22;513;51.444;7.196;2022-10-16T09:31:24;16.10;99.90
1049;DHT22;513;51.444;7.196;2022-10-16T09:33:55;16.10;99.90
1049;DHT22;513;51.444;7.196;2022-10-16T09:36:25;16.20;99.90
1049;DHT22;513;51.444;7.196;2022-10-16T09:39:03;16.30;99.90
1049;DHT22;513;51.444;7.196;2022-10-16T09:41:33;16.30;99.90
1049;DHT22;513;51.444;7.196;2022-10-16T09:44:01;16.40;99.90
1049;DHT22;513;51.444;7.196;2022-10-16T09:46:32;16.40;99.90
1049;DHT22;513;51.444;7.196;2022-10-16T09:49:01;16.50;99.90
1049;DHT22;513;51.444;7.196;2022-10-16T09:51:30;16.50;99.90
1049;DHT22;513;51.444;7.196;2022-10-16T09:53:59;16.40;99.90
1049;DHT22;513;51.444;7.196;2022-10-16T09:56:29;16.30;99.90
1049;DHT22;513;51.444;7.196;2022-10-16T09:58:59;16.50;99.90
1049;DHT22;513;51.444;7.196;2022-10-16T10:01:30;16.50;99.90
1049;DHT22;513;51.444;7.196;2022-10-16T10:03:57;16.70;99.90
1049;DHT22;513;51.444;7.196;2022-10-16T10:06:29;16.90;99.90
1049;DHT22;513;51.444;7.196;2022-10-16T10:09:00;16.90;99.90
1049;DHT22;513;51.444;7.196;2022-10-16T10:11:44;16.90;99.90
1049;DHT22;513;51.444;7.196;2022-10-16T10:14:19;16.90;99.90
1049;DHT22;513;51.444;7.196;2022-10-16T10:16:47;17.00;99.90
1049;DHT22;513;51.444;7.196;2022-10-16T10:19:16;17.10;99.90
1049;DHT22;513;51.444;7.196;2022-10-16T10:21:43;17.10;99.90
1049;DHT22;513;51.444;7.196;2022-10-16T10:24:11;17.10;99.90
1049;DHT22;513;51.444;7.196;2022-10-16T10:26:44;17.10;99.90
1049;DHT22;513;51.444;7.196;2022-10-16T10:29:19;17.00;99.90
1049;DHT22;513;51.444;7.196;2022-10-16T10:31:54;17.00;99.90
1049;DHT22;513;51.444;7.196;2022-10-16T10:34:35;17.10;99.90
1049;DHT22;513;51.444;7.196;2022-10-16T10:37:19;17.20;99.90
1049;DHT22;513;51.444;7.196;2022-10-16T10:39:55;17.20;99.90
1049;DHT22;513;51.444;7.196;2022-10-16T10:42:28;17.30;99.90
1049;DHT22;513;51.444;7.196;2022-10-16T10:45:13;17.40;99.90
1049;DHT22;513;51.444;7.196;2022-10-16T10:47:48;17.40;99.90
1049;DHT22;513;51.444;7.196;2022-10-16T10:50:24;17.40;99.90
1049;DHT22;513;51.444;7.196;2022-10-16T10:53:01;17.50;99.90
1049;DHT22;513;51.444;7.196;2022-10-16T10:55:37;17.50;99.90
1049;DHT22;513;51.444;7.196;2022-10-16T11:01:01;17.70;98.40
1049;DHT22;513;51.444;7.196;2022-10-16T11:03:45;17.80;96.90
1049;DHT22;513;51.444;7.196;2022-10-16T11:06:17;17.80;90.80
1049;DHT22;513;51.444;7.196;2022-10-16T11:08:47;17.80;73.40
1049;DHT22;513;51.444;7.196;2022-10-16T11:11:19;17.90;88.40
1049;DHT22;513;51.444;7.196;2022-10-16T11:13:55;17.90;20.90
1049;DHT22;513;51.444;7.196;2022-10-16T11:16:27;17.90;7.30
1049;DHT22;513;51.444;7.196;2022-10-16T11:18:59;17.90;1.00
1049;DHT22;513;51.444;7.196;2022-10-16T11:21:31;18.00;1.00
1049;DHT22;513;51.444;7.196;2022-10-16T11:24:06;17.90;1.00
1049;DHT22;513;51.444;7.196;2022-10-16T11:26:40;18.10;1.00
1049;DHT22;513;51.444;7.196;2022-10-16T11:29:13;18.10;1.00
1049;DHT22;513;51.444;7.196;2022-10-16T11:31:46;18.20;1.00
1049;DHT22;513;51.444;7.196;2022-10-16T11:34:21;18.20;1.00
1049;DHT22;513;51.444;7.196;2022-10-16T11:36:52;18.30;1.00
1049;DHT22;513;51.444;7.196;2022-10-16T11:39:21;18.30;1.00
1049;DHT22;513;51.444;7.196;2022-10-16T11:41:52;18.40;1.00
1049;DHT22;513;51.444;7.196;2022-10-16T11:44:32;18.30;1.00
1049;DHT22;513;51.444;7.196;2022-10-16T11:47:08;18.10;99.90
1049;DHT22;513;51.444;7.196;2022-10-16T11:49:40;17.80;1.00
1049;DHT22;513;51.444;7.196;2022-10-16T11:52:13;17.80;1.00
1049;DHT22;513;51.444;7.196;2022-10-16T11:54:47;17.80;99.90
1049;DHT22;513;51.444;7.196;2022-10-16T11:57:18;17.90;1.00
1049;DHT22;513;51.444;7.196;2022-10-16T11:59:51;18.00;1.00
1049;DHT22;513;51.444;7.196;2022-10-16T12:02:37;18.10;1.00
1049;DHT22;513;51.444;7.196;2022-10-16T12:05:22;18.20;1.00
1049;DHT22;513;51.444;7.196;2022-10-16T12:07:56;18.30;1.00
1049;DHT22;513;51.444;7.196;2022-10-16T12:10:29;18.40;1.00
1049;DHT22;513;51.444;7.196;2022-10-16T12:12:57;18.60;1.00
1049;DHT22;513;51.444;7.196;2022-10-16T12:15:27;18.60;1.00
1049;DHT22;513;51.444;7.196;2022-10-16T12:17:54;18.80;1.00
1049;DHT22;513;51.444;7.196;2022-10-16T12:20:24;18.80;1.00
1049;DHT22;513;51.444;7.196;2022-10-16T12:22:54;18.90;99.90
1049;DHT22;513;51.444;7.196;2022-10-16T12:25:25;18.70;99.90
1049;DHT22;513;51.444;7.196;2022-10-16T12:28:01;18.60;1.00
1049;DHT22;513;51.444;7.196;2022-10-16T12:30:32;18.40;99.90
1049;DHT22;513;51.444;7.196;2022-10-16T12:33:02;18.20;99.90
1049;DHT22;513;51.444;7.196;2022-10-16T12:35:31;18.20;1.00
1049;DHT22;513;51.444;7.196;2022-10-16T12:38:15;18.30;99.90
1049;DHT22;513;51.444;7.196;2022-10-16T12:40:43;18.50;99.90
1049;DHT22;513;51.444;7.196;2022-10-16T12:43:13;18.40;99.90
1049;DHT22;513;51.444;7.196;2022-10-16T12:46:01;18.30;99.90
1049;DHT22;513;51.444;7.196;2022-10-16T12:48:29;18.10;99.90
1049;DHT22;513;51.444;7.196;2022-10-16T12:50:56;17.90;99.90
1049;DHT22;513;51.444;7.196;2022-10-16T12:53:24;18.00;99.90
1049;DHT22;513;51.444;7.196;2022-10-16T12:56:00;18.00;99.90
1049;DHT22;513;51.444;7.196;2022-10-16T13:01:31;17.90;99.90
1049;DHT22;513;51.444;7.196;2022-10-16T13:04:25;17.90;99.90
1049;DHT22;513;51.444;7.196;2022-10-16T13:07:15;17.80;99.90
1049;DHT22;513;51.444;7.196;2022-10-16T13:09:55;17.70;99.90
1049;DHT22;513;51.444;7.196;2022-10-16T13:12:55;17.70;99.90
1049;DHT22;513;51.444;7.196;2022-10-16T13:15:41;17.70;99.90
1049;DHT22;513;51.444;7.196;2022-10-16T13:18:18;17.90;99.90
1049;DHT22;513;51.444;7.196;2022-10-16T13:20:56;18.10;99.90
1049;DHT22;513;51.444;7.196;2022-10-16T13:23:29;18.20;98.10
1049;DHT22;513;51.444;7.196;2022-10-16T13:26:08;18.20;99.90
1049;DHT22;513;51.444;7.196;2022-10-16T13:28:39;18.30;16.20
1049;DHT22;513;51.444;7.196;2022-10-16T13:31:14;18.30;1.00
1049;DHT22;513;51.444;7.196;2022-10-16T13:33:46;18.30;91.40
1049;DHT22;513;51.444;7.196;2022-10-16T13:36:21;18.20;99.90
1049;DHT22;513;51.444;7.196;2022-10-16T13:38:48;18.10;29.50
1049;DHT22;513;51.444;7.196;2022-10-16T13:41:25;18.00;99.90
1049;DHT22;513;51.444;7.196;2022-10-16T13:43:54;17.90;99.90
1049;DHT22;513;51.444;7.196;2022-10-16T13:46:24;17.80;99.90
1049;DHT22;513;51.444;7.196;2022-10-16T13:48:59;17.80;99.90
1049;DHT22;513;51.444;7.196;2022-10-16T13:51:27;17.70;99.90
1049;DHT22;513;51.444;7.196;2022-10-16T13:53:55;17.60;99.90
1049;DHT22;513;51.444;7.196;2022-10-16T13:56:25;17.70;99.90
1049;DHT22;513;51.444;7.196;2022-10-16T13:58:59;17.60;99.90
1049;DHT22;513;51.444;7.196;2022-10-16T14:01:28;17.60;99.90
1049;DHT22;513;51.444;7.196;2022-10-16T14:04:02;17.60;99.90
1049;DHT22;513;51.444;7.196;2022-10-16T14:06:31;17.60;99.90
1049;DHT22;513;51.444;7.196;2022-10-16T14:09:01;17.70;99.90
1049;DHT22;513;51.444;7.196;2022-10-16T14:11:29;17.70;99.90
1049;DHT22;513;51.444;7.196;2022-10-16T14:13:55;17.80;99.90
1049;DHT22;513;51.444;7.196;2022-10-16T14:16:25;17.90;99.90
1049;DHT22;513;51.444;7.196;2022-10-16T14:18:57;17.80;99.90
1049;DHT22;513;51.444;7.196;2022-10-16T14:21:27;17.90;99.90
1049;DHT22;513;51.444;7.196;2022-10-16T14:23:54;17.90;99.90
1049;DHT22;513;51.444;7.196;2022-10-16T14:26:23;17.90;99.90
1049;DHT22;513;51.444;7.196;2022-10-16T14:29:08;17.80;99.90
1049;DHT22;513;51.444;7.196;2022-10-16T14:31:36;17.80;99.90
1049;DHT22;513;51.444;7.196;2022-10-16T14:36:48;17.50;99.90
1049;DHT22;513;51.444;7.196;2022-10-16T14:39:19;17.40;99.90
1049;DHT22;513;51.444;7.196;2022-10-16T14:41:48;17.40;1.00
1049;DHT22;513;51.444;7.196;2022-10-16T14:44:17;17.40;99.90
1049;DHT22;513;51.444;7.196;2022-10-16T14:46:46;17.40;1.00
1049;DHT22;513;51.444;7.196;2022-10-16T14:49:16;17.40;99.90
1049;DHT22;513;51.444;7.196;2022-10-16T14:51:45;17.30;1.00
1049;DHT22;513;51.444;7.196;2022-10-16T14:54:14;17.30;1.00
1049;DHT22;513;51.444;7.196;2022-10-16T14:56:46;17.30;1.00
1049;DHT22;513;51.444;7.196;2022-10-16T14:59:15;17.50;1.00
1049;DHT22;513;51.444;7.196;2022-10-16T15:01:43;17.50;1.00
1049;DHT22;513;51.444;7.196;2022-10-16T15:04:11;17.50;1.00
1049;DHT22;513;51.444;7.196;2022-10-16T15:06:38;17.40;1.00
1049;DHT22;513;51.444;7.196;2022-10-16T15:09:05;17.40;1.00
1049;DHT22;513;51.444;7.196;2022-10-16T15:11:34;17.50;1.00
1049;DHT22;513;51.444;7.196;2022-10-16T15:14:00;17.50;1.00
1049;DHT22;513;51.444;7.196;2022-10-16T15:16:29;17.60;1.00
1049;DHT22;513;51.444;7.196;2022-10-16T15:18:56;17.60;1.00
1049;DHT22;513;51.444;7.196;2022-10-16T15:21:24;17.60;1.00
1049;DHT22;513;51.444;7.196;2022-10-16T15:23:51;17.60;1.00
1049;DHT22;513;51.444;7.196;2022-10-16T15:26:18;17.50;1.00
1049;DHT22;513;51.444;7.196;2022-10-16T15:28:46;17.50;1.00
1049;DHT22;513;51.444;7.196;2022-10-16T15:31:12;17.50;1.00
1049;DHT22;513;51.444;7.196;2022-10-16T15:33:39;17.40;1.00
1049;DHT22;513;51.444;7.196;2022-10-16T15:36:06;17.50;1.00
1049;DHT22;513;51.444;7.196;2022-10-16T15:38:34;17.40;1.00
1049;DHT22;513;51.444;7.196;2022-10-16T15:41:00;17.40;1.00
1049;DHT22;513;51.444;7.196;2022-10-16T15:43:27;17.40;1.00
1049;DHT22;513;51.444;7.196;2022-10-16T15:46:01;17.40;1.00
1049;DHT22;513;51.444;7.196;2022-10-16T15:48:29;17.30;1.00
1049;DHT22;513;51.444;7.196;2022-10-16T15:50:56;17.30;1.00
1049;DHT22;513;51.444;7.196;2022-10-16T15:53:22;17.20;16.00
1049;DHT22;513;51.444;7.196;2022-10-16T15:55:49;17.30;41.90
1049;DHT22;513;51.444;7.196;2022-10-16T15:58:16;17.20;69.10
1049;DHT22;513;51.444;7.196;2022-10-16T16:00:43;17.20;89.50
1049;DHT22;513;51.444;7.196;2022-10-16T16:03:11;17.20;98.20
1049;DHT22;513;51.444;7.196;2022-10-16T16:05:38;17.20;99.90
1049;DHT22;513;51.444;7.196;2022-10-16T16:08:05;17.20;99.90
1049;DHT22;513;51.444;7.196;2022-10-16T16:10:32;17.10;99.90
1049;DHT22;513;51.444;7.196;2022-10-16T16:12:58;17.10;99.90
1049;DHT22;513;51.444;7.196;2022-10-16T16:15:25;17.00;99.90
1049;DHT22;513;51.444;7.196;2022-10-16T16:17:52;17.00;99.90
1049;DHT22;513;51.444;7.196;2022-10-16T16:20:20;17.00;99.90
1049;DHT22;513;51.444;7.196;2022-10-16T16:22:47;16.90;99.90
1049;DHT22;513;51.444;7.196;2022-10-16T16:25:14;16.70;99.40
1049;DHT22;513;51.444;7.196;2022-10-16T16:27:40;16.60;99.10
1049;DHT22;513;51.444;7.196;2022-10-16T16:30:09;16.60;99.70
1049;DHT22;513;51.444;7.196;2022-10-16T16:32:36;16.50;99.90
1049;DHT22;513;51.444;7.196;2022-10-16T16:35:03;16.50;99.90
1049;DHT22;513;51.444;7.196;2022-10-16T16:37:31;16.50;99.90
1049;DHT22;513;51.444;7.196;2022-10-16T16:39:59;16.50;99.90
1049;DHT22;513;51.444;7.196;2022-10-16T16:42:26;16.50;99.90
1049;DHT22;513;51.444;7.196;2022-10-16T16:44:54;16.50;99.90
1049;DHT22;513;51.444;7.196;2022-10-16T16:47:21;16.40;99.90